Main page
METAR-TAF:

METAR-TAF

Airports :

Kangra Airport

Dharamsala, India

latitude: 32-09-54N, longitude: 76-15-48E, elevation: 770 m

Current weather observation

The report was made 12 hours and 39 minutes ago, at 08:00 UTC
Wind 2 kt from the Southwest
Temperature 26°C
Humidity 48%
Pressure 1019 hPa
Visibility: 6000 m
Few clouds at a height of 3500 ft

METAR: VIGG 280800Z 22002KT 6000 FEW035 26/14 Q1019

Time: 02:09 (20:39 UTC)

Forecast

The report was made 21 hours and 39 minutes ago, at 23:00 UTC
Forecast valid from 28 at 00 UTC to 28 at 09 UTC
Wind 2 kt from variable directions
Visibility: 6000 m
Few clouds at a height of 4000 ft

TAF: VIGG 272300Z 2800/2809 VRB02KT 6000 FEW040

Weather observations and forecasts of more than 4000 airports (METAR and TAF reports).

The available stations are represented by yellow and red dots on the map.

Hover mouse over dot to see the name of the station.

Then click to see weather observations and forecasts.

To change the map : click on the green buttons with a black cross to zoom in, on the green button with a dash to zoom out, or on the green arrows for adjacent maps.


METAR-TAF: